Data for 02/17/2009

Time Sea-Level Adjusted Pressure Absolute Pressure Temperature Relative Humidity Dew Point   
(mb) (inHg) (mb) (inHg) (C) (F) (%) (C) (F)
00:05 1005 29.68 834 24.63 0.1 32.2 49 -9.5 15
00:10 1005 29.68 834 24.63 0.2 32.3 49 -9.2 15.4
00:15 1005 29.68 834 24.63 0.2 32.4 49 -9.3 15.3
00:20 1005 29.68 834 24.63 0.2 32.4 50 -9 15.7
00:25 1005 29.68 834 24.63 0.2 32.4 50 -9.2 15.5
00:30 1005 29.68 834 24.63 0.2 32.4 50 -9 15.8
00:35 1005 29.68 834 24.63 0.3 32.6 49 -9.3 15.3
00:40 1005 29.68 834 24.63 0.4 32.7 49 -9.2 15.4
00:45 1005 29.68 834 24.63 0.4 32.8 49 -9 15.8
00:50 1005 29.68 834 24.63 0.4 32.7 49 -9.2 15.4
00:55 1005 29.68 834 24.63 0.5 32.8 49 -9.2 15.5
01:00 1005 29.68 834 24.63 0.4 32.8 50 -8.8 16.2
01:05 1005 29.68 834 24.63 0.1 32.1 55 -8 17.6
01:10 1004 29.65 834 24.63 -0.2 31.7 55 -8.2 17.3
01:15 1004 29.65 834 24.63 -0.3 31.4 55 -8.2 17.2
01:20 1004 29.65 834 24.63 -0.3 31.4 57 -7.9 17.8
01:25 1004 29.65 834 24.63 -0.5 31.1 57 -8 17.6
01:30 1004 29.65 834 24.63 -0.4 31.3 55 -8.4 16.9
01:35 1004 29.65 834 24.63 -0.3 31.5 54 -8.6 16.5
01:40 1004 29.65 834 24.63 -0.1 31.8 54 -8.4 16.9
01:45 1004 29.65 834 24.63 -0.2 31.7 54 -8.3 17
01:50 1004 29.65 834 24.63 -0.1 31.8 54 -8.4 16.9
01:55 1004 29.65 834 24.63 -0.2 31.7 54 -8.5 16.7
02:00 1004 29.65 834 24.63 -0.1 31.7 54 -8.2 17.2
02:05 1004 29.65 834 24.63 -0.1 31.8 56 -7.9 17.8
02:10 1004 29.65 834 24.63 -0.4 31.3 57 -7.9 17.8
02:15 1004 29.65 834 24.63 -0.5 31.2 56 -8.2 17.2
02:20 1004 29.65 834 24.63 -0.3 31.4 55 -8.2 17.2
02:25 1004 29.65 834 24.63 -0.2 31.6 55 -8.1 17.4
02:30 1004 29.65 834 24.63 -0.1 31.8 55 -8.1 17.5
02:35 1004 29.65 834 24.63 -0 32 56 -7.7 18.2
02:40 1004 29.65 834 24.63 -0.1 31.9 57 -7.6 18.4
02:45 1004 29.65 834 24.63 -0.1 31.8 57 -7.7 18.1
02:50 1004 29.65 834 24.63 -0.1 31.8 57 -7.5 18.4
02:55 1004 29.65 834 24.63 -0.1 31.9 58 -7.4 18.6
03:00 1004 29.65 834 24.63 -0.3 31.5 59 -7.2 19
03:05 1004 29.65 834 24.63 -0.4 31.3 61 -7.1 19.3
03:10 1004 29.65 834 24.63 -0.5 31.1 61 -7 19.4
03:15 1004 29.65 834 24.63 -0.6 31 61 -7.2 19
03:20 1004 29.65 834 24.63 -0.6 30.9 58 -7.8 18
03:25 1004 29.65 834 24.63 -0.5 31.1 61 -7.2 19.1
03:30 1004 29.65 834 24.63 -0.4 31.3 56 -8.2 17.2
03:35 1004 29.65 834 24.63 0.1 32.3 53 -8.4 16.8
03:40 1004 29.65 834 24.63 0.6 33.1 53 -7.9 17.8
03:45 1004 29.65 834 24.63 0.5 32.9 54 -7.8 18
03:50 1004 29.65 834 24.63 0.5 32.9 56 -7.3 18.9
03:55 1004 29.65 834 24.63 0.7 33.3 53 -7.7 18.2
04:00 1004 29.65 834 24.63 0.9 33.6 54 -7.3 18.8
04:05 1004 29.65 834 24.63 0.9 33.6 57 -6.6 20.1
04:10 1004 29.65 834 24.63 1 33.7 56 -6.8 19.8
04:15 1005 29.68 834 24.63 1.1 33.9 55 -7 19.4
04:20 1005 29.68 834 24.63 1.1 34 54 -7.1 19.1
04:25 1005 29.68 834 24.63 1.1 34 59 -6 21.3
04:30 1005 29.68 834 24.63 0.8 33.5 66 -4.8 23.4
04:35 1005 29.68 834 24.63 0.2 32.3 71 -4.4 24
04:40 1005 29.68 834 24.63 -0.3 31.5 73 -4.6 23.7
04:45 1005 29.68 834 24.63 -0.5 31.1 74 -4.5 23.9
04:50 1005 29.68 834 24.63 -0.8 30.5 76 -4.5 24
04:55 1005 29.68 834 24.63 -1.1 30.1 78 -4.4 24.1
05:00 1005 29.68 834 24.63 -1.1 30 78 -4.4 24.1
05:05 1005 29.68 834 24.63 -1 30.1 80 -4.1 24.5
05:10 1005 29.68 834 24.63 -1 30.1 80 -4 24.7
05:15 1005 29.68 834 24.63 -1 30.1 82 -3.7 25.3
05:20 1005 29.68 834 24.63 -1.1 30.1 83 -3.5 25.6
05:25 1005 29.68 834 24.63 -1.1 30.1 84 -3.4 26
05:30 1005 29.68 834 24.63 -1.1 30.1 85 -3.2 26.2
05:35 1005 29.68 834 24.63 -1 30.1 85 -3.2 26.2
05:40 1005 29.68 834 24.63 -1 30.1 85 -3.2 26.2
05:45 1005 29.68 834 24.63 -1.1 30 86 -3.1 26.4
05:50 1005 29.68 834 24.63 -1.2 29.9 87 -3.1 26.4
05:55 1005 29.68 834 24.63 -1.1 30 87 -3 26.5
06:00 1005 29.68 834 24.63 -1.3 29.7 88 -3 26.6
06:05 1005 29.68 834 24.63 -1.1 30 88 -2.8 27
06:10 1005 29.68 834 24.63 -1.2 29.9 89 -2.8 27
06:15 1005 29.68 834 24.63 -1.3 29.6 91 -2.7 27.2
06:20 1005 29.68 834 24.63 -1.5 29.4 92 -2.7 27.2
06:25 1005 29.68 834 24.63 -1.4 29.4 92 -2.6 27.3
06:30 1005 29.68 834 24.63 -1.3 29.7 91 -2.5 27.4
06:35 1005 29.68 834 24.63 -1.4 29.5 92 -2.5 27.5
06:40 1005 29.68 834 24.63 -1.6 29.1 94 -2.5 27.5
06:45 1005 29.68 834 24.63 -1.7 29 94 -2.5 27.5
06:50 1005 29.68 834 24.63 -1.7 29 94 -2.5 27.5
06:55 1005 29.68 834 24.63 -1.7 29 94 -2.5 27.5
07:00 1005 29.68 834 24.63 -1.6 29 94 -2.6 27.4
07:05 1005 29.68 834 24.63 -1.5 29.3 92 -2.6 27.4
07:10 1005 29.68 834 24.63 -1.3 29.7 92 -2.4 27.6
07:15 1005 29.68 834 24.63 -1.3 29.7 92 -2.5 27.6
07:20 1005 29.68 835 24.66 -1.3 29.6 90 -2.7 27.1
07:25 1005 29.68 835 24.66 -1.3 29.7 92 -2.5 27.6
07:30 1005 29.68 835 24.66 -1 30.2 92 -2.2 28
07:35 1005 29.68 835 24.66 -1.1 30.1 92 -2.2 28
07:40 1005 29.68 835 24.66 -1.2 29.8 93 -2.3 27.9
07:45 1006 29.71 835 24.66 -1.3 29.7 93 -2.2 28
07:50 1006 29.71 835 24.66 -1.3 29.7 93 -2.2 28
07:55 1006 29.71 835 24.66 -1.3 29.7 93 -2.3 27.8
08:00 1006 29.71 835 24.66 -1.1 30 91 -2.3 27.8
08:05 1006 29.71 835 24.66 -0.9 30.4 91 -2.2 28.1
08:10 1006 29.71 835 24.66 -0.9 30.4 91 -2.3 27.9
08:15 1006 29.71 835 24.66 -0.7 30.8 90 -2.1 28.3
08:20 1006 29.71 835 24.66 -0.9 30.3 91 -2.1 28.1
08:25 1006 29.71 835 24.66 -1.2 29.8 93 -2.3 27.9
08:30 1006 29.71 835 24.66 -1.3 29.7 92 -2.3 27.8
08:35 1006 29.71 835 24.66 -1.2 29.8 92 -2.4 27.7
08:40 1006 29.71 835 24.66 -1.3 29.6 93 -2.4 27.7
08:45 1006 29.71 835 24.66 -1.2 29.8 92 -2.3 27.8
08:50 1006 29.71 835 24.66 -1.2 29.8 92 -2.3 27.9
08:55 1006 29.71 835 24.66 -1.1 29.9 91 -2.4 27.6
09:00 1006 29.71 835 24.66 -1.2 29.9 92 -2.4 27.7
09:05 1006 29.71 835 24.66 -1.1 30 92 -2.3 27.8
09:10 1006 29.71 835 24.66 -1.1 29.9 92 -2.3 27.8
09:15 1006 29.71 835 24.66 -1.1 30.1 91 -2.3 27.9
09:20 1006 29.71 835 24.66 -0.9 30.4 89 -2.4 27.7
09:25 1006 29.71 835 24.66 -0.5 31.1 88 -2.2 28
09:30 1006 29.71 835 24.66 -0.5 31.1 87 -2.4 27.7
09:35 1006 29.71 835 24.66 -0.3 31.5 86 -2.3 27.9
09:40 1006 29.71 835 24.66 0.3 32.5 83 -2.3 27.8
09:45 1006 29.71 835 24.66 0.8 33.4 81 -2.1 28.2
09:50 1006 29.71 836 24.69 0.7 33.3 82 -2.1 28.3
09:55 1006 29.71 836 24.69 0.7 33.2 82 -2.1 28.2
10:00 1006 29.71 836 24.69 1 33.7 79 -2.3 27.8
10:05 1006 29.71 836 24.69 1.2 34.2 78 -2.2 28
10:10 1007 29.74 836 24.69 1.4 34.4 78 -2.1 28.2
10:15 1007 29.74 836 24.69 1.1 34.1 80 -2 28.4
10:20 1007 29.74 836 24.69 0.9 33.6 78 -2.5 27.6
10:25 1007 29.74 836 24.69 0.9 33.6 80 -2.2 28
10:30 1007 29.74 836 24.69 1.1 34 79 -2.2 28
10:35 1007 29.74 836 24.69 0.9 33.7 80 -2.2 28
10:40 1007 29.74 836 24.69 1 33.7 81 -2 28.5
10:45 1007 29.74 836 24.69 1.4 34.6 76 -2.4 27.7
10:50 1007 29.74 836 24.69 1.8 35.2 75 -2.2 28
10:55 1007 29.74 836 24.69 2 35.6 75 -2 28.5
11:00 1007 29.74 836 24.69 1.9 35.4 75 -2.1 28.1
11:05 1007 29.74 836 24.69 1.8 35.2 75 -2.2 28.1
11:10 1007 29.74 836 24.69 1.9 35.5 75 -2.1 28.3
11:15 1007 29.74 836 24.69 2.1 35.7 72 -2.5 27.4
11:20 1007 29.74 836 24.69 2.2 36 75 -1.8 28.8
11:25 1007 29.74 836 24.69 2.4 36.3 68 -2.8 26.9
11:30 1007 29.74 836 24.69 2.6 36.7 69 -2.4 27.7
11:35 1007 29.74 837 24.72 2.8 37.1 69 -2.4 27.7
11:40 1007 29.74 837 24.72 2.8 37 66 -3 26.6
11:45 1007 29.74 837 24.72 2.6 36.6 70 -2.3 27.8
11:50 1007 29.74 837 24.72 2.8 37.1 70 -2 28.4
11:55 1007 29.74 837 24.72 3.3 38 65 -2.6 27.2
12:00 1007 29.74 837 24.72 3.4 38.2 68 -1.8 28.7
12:05 1007 29.74 837 24.72 3.1 37.5 68 -2.3 27.8
12:10 1007 29.74 837 24.72 3 37.4 69 -2.1 28.2
12:15 1007 29.74 837 24.72 3.4 38.1 63 -3 26.5
12:20 1007 29.74 837 24.72 3.3 37.9 65 -2.6 27.2
12:25 1007 29.74 837 24.72 4.1 39.3 59 -3.3 26.1
12:30 1007 29.74 837 24.72 4.7 40.4 57 -3.1 26.4
12:35 1007 29.74 836 24.69 5.4 41.7 53 -3.5 25.7
12:40 1007 29.74 837 24.72 5.9 42.6 50 -3.6 25.5
12:45 1007 29.74 837 24.72 5.8 42.5 52 -3.4 25.9
12:50 1007 29.74 836 24.69 5.8 42.4 52 -3.3 26.1
12:55 1007 29.74 836 24.69 6 42.7 53 -2.9 26.7
13:00 1007 29.74 836 24.69 5.9 42.7 54 -2.7 27.1
13:05 1007 29.74 836 24.69 5.1 41.1 56 -3.1 26.5
13:10 1007 29.74 836 24.69 6 42.8 52 -3.2 26.2
13:15 1007 29.74 836 24.69 6.5 43.7 51 -3 26.6
13:20 1007 29.74 836 24.69 6.4 43.6 51 -3 26.5
13:25 1007 29.74 836 24.69 6.2 43.2 51 -3.1 26.5
13:30 1007 29.74 836 24.69 6.2 43.2 52 -2.9 26.9
13:35 1007 29.74 836 24.69 6.5 43.8 50 -3.3 26.1
13:40 1007 29.74 836 24.69 6.7 44 48 -3.5 25.6
13:45 1007 29.74 836 24.69 6.1 42.9 51 -3.3 26.1
13:50 1007 29.74 836 24.69 6.1 42.9 49 -3.8 25.1
13:55 1007 29.74 836 24.69 6.3 43.4 50 -3.4 25.9
14:00 1007 29.74 836 24.69 6.2 43.2 50 -3.5 25.8
14:05 1007 29.74 836 24.69 6.7 44.1 46 -4.2 24.4
14:10 1007 29.74 836 24.69 6.9 44.4 48 -3.4 25.8
14:15 1007 29.74 836 24.69 6.8 44.3 45 -4.2 24.4
14:20 1007 29.74 836 24.69 6.9 44.4 47 -3.8 25.2
14:25 1007 29.74 836 24.69 7.1 44.7 46 -3.8 25.1
14:30 1007 29.74 836 24.69 7 44.6 46 -3.7 25.3
14:35 1007 29.74 836 24.69 6.1 43 50 -3.5 25.6
14:40 1007 29.74 836 24.69 5.8 42.5 49 -4.1 24.6
14:45 1007 29.74 836 24.69 5.3 41.6 51 -3.9 24.9
14:50 1007 29.74 836 24.69 4.8 40.6 53 -4.1 24.6
14:55 1007 29.74 836 24.69 5.2 41.4 52 -3.9 24.9
15:00 1007 29.74 836 24.69 5.9 42.6 47 -4.6 23.8
15:05 1007 29.74 836 24.69 6.4 43.5 45 -4.8 23.4
15:10 1007 29.74 836 24.69 6.2 43.1 46 -4.4 24
15:15 1007 29.74 837 24.72 5.8 42.5 48 -4.3 24.3
15:20 1007 29.74 837 24.72 5.5 42 50 -3.9 24.9
15:25 1008 29.77 837 24.72 5.6 42.2 50 -4.1 24.7
15:30 1008 29.77 837 24.72 6.3 43.3 45 -4.7 23.5
15:35 1008 29.77 837 24.72 6.4 43.6 46 -4.3 24.3
15:40 1008 29.77 837 24.72 6.5 43.7 46 -4.3 24.2
15:45 1008 29.77 837 24.72 6.5 43.7 47 -4.1 24.7
15:50 1008 29.77 837 24.72 6.4 43.5 47 -4 24.8
15:55 1008 29.77 837 24.72 5.8 42.4 48 -4.3 24.3
16:00 1008 29.77 837 24.72 5.2 41.3 50 -4.3 24.2
16:05 1008 29.77 837 24.72 4.9 40.8 52 -4.2 24.4
16:10 1008 29.77 837 24.72 4.5 40 55 -3.9 25
16:15 1008 29.77 837 24.72 4.1 39.4 56 -3.9 25.1
16:20 1008 29.77 837 24.72 3.8 38.8 58 -3.7 25.4
16:25 1008 29.77 837 24.72 3.5 38.2 58 -3.9 24.9
16:30 1008 29.77 837 24.72 3.1 37.6 60 -3.9 25
16:35 1008 29.77 837 24.72 3.1 37.7 61 -3.6 25.4
16:40 1008 29.77 837 24.72 2.9 37.2 67 -2.7 27.2
16:45 1008 29.77 837 24.72 2.6 36.6 65 -3.3 26.1
16:50 1008 29.77 837 24.72 2.8 37.1 68 -2.5 27.6
16:55 1008 29.77 837 24.72 2.5 36.4 69 -2.6 27.3
17:00 1008 29.77 837 24.72 2.6 36.8 72 -2 28.5
17:05 1008 29.77 837 24.72 2.4 36.4 71 -2.3 27.9
17:10 1008 29.77 837 24.72 2.4 36.4 70 -2.4 27.6
17:15 1008 29.77 837 24.72 2.4 36.4 70 -2.6 27.3
17:20 1008 29.77 837 24.72 2.6 36.6 68 -2.7 27.1
17:25 1008 29.77 838 24.75 2.7 36.9 68 -2.6 27.3
17:30 1008 29.77 838 24.75 2.6 36.6 67 -2.9 26.8
17:35 1008 29.77 838 24.75 2.5 36.4 67 -3 26.6
17:40 1008 29.77 838 24.75 2.4 36.3 66 -3.2 26.2
17:45 1009 29.8 838 24.75 2.6 36.8 60 -4.2 24.4
17:50 1009 29.8 838 24.75 3.2 37.8 59 -4 24.9
17:55 1009 29.8 838 24.75 3.3 37.9 60 -3.9 25
18:00 1009 29.8 838 24.75 3.1 37.6 63 -3.2 26.2
18:05 1009 29.8 838 24.75 2.7 36.8 67 -2.9 26.8
18:10 1009 29.8 838 24.75 2.4 36.3 67 -3.2 26.3
18:15 1009 29.8 838 24.75 2.8 37.1 57 -4.8 23.4
18:20 1009 29.8 838 24.75 3.4 38.1 55 -4.7 23.5
18:25 1009 29.8 838 24.75 3.3 38 57 -4.5 23.9
18:30 1009 29.8 838 24.75 3.3 37.9 56 -4.7 23.5
18:35 1009 29.8 838 24.75 3.3 38 56 -4.5 23.8
18:40 1009 29.8 838 24.75 3.3 37.9 55 -5 23.1
18:45 1009 29.8 839 24.78 3.1 37.7 55 -5 23
18:50 1009 29.8 839 24.78 3.2 37.8 53 -5.4 22.3
18:55 1009 29.8 839 24.78 3.3 38 53 -5.3 22.4
19:00 1010 29.83 839 24.78 3.3 37.9 54 -5.1 22.8
19:05 1010 29.83 839 24.78 3.2 37.8 53 -5.5 22.2
19:10 1010 29.83 839 24.78 3.2 37.7 54 -5.2 22.6
19:15 1010 29.83 839 24.78 3 37.5 54 -5.3 22.5
19:20 1010 29.83 839 24.78 2.9 37.3 54 -5.5 22.2
19:25 1010 29.83 839 24.78 2.9 37.2 54 -5.5 22.1
19:30 1010 29.83 839 24.78 2.9 37.1 54 -5.5 22.1
19:35 1010 29.83 839 24.78 2.9 37.1 54 -5.7 21.8
19:40 1010 29.83 839 24.78 2.9 37.2 53 -5.7 21.8
19:45 1010 29.83 839 24.78 2.8 37.1 54 -5.7 21.8
19:50 1010 29.83 839 24.78 2.7 36.8 55 -5.6 21.9
19:55 1010 29.83 839 24.78 2.5 36.5 55 -5.7 21.7
20:00 1010 29.83 839 24.78 2.3 36.2 55 -5.8 21.5
20:05 1010 29.83 840 24.81 2.2 35.9 56 -5.6 21.9
20:10 1010 29.83 840 24.81 2.1 35.7 57 -5.6 21.9
20:15 1010 29.83 840 24.81 2.1 35.8 56 -5.8 21.5
20:20 1011 29.85 840 24.81 2 35.6 57 -5.7 21.8
20:25 1011 29.85 840 24.81 1.9 35.5 57 -5.8 21.6
20:30 1011 29.85 840 24.81 1.8 35.3 57 -5.9 21.5
20:35 1011 29.85 840 24.81 1.6 35 57 -6.1 21
20:40 1011 29.85 840 24.81 1.5 34.7 56 -6.3 20.6
20:45 1011 29.85 840 24.81 1.5 34.7 55 -6.5 20.3
20:50 1011 29.85 840 24.81 1.5 34.7 56 -6.4 20.5
20:55 1011 29.85 840 24.81 1.4 34.6 56 -6.5 20.3
21:00 1011 29.85 840 24.81 1.4 34.6 55 -6.7 20
21:05 1011 29.85 840 24.81 1.5 34.6 54 -6.8 19.7
21:10 1011 29.85 840 24.81 1.5 34.8 53 -6.9 19.5
21:15 1011 29.85 840 24.81 1.6 34.9 53 -7 19.4
21:20 1011 29.85 840 24.81 1.6 34.9 53 -7 19.4
21:25 1011 29.85 840 24.81 1.7 35 53 -6.9 19.6
21:30 1011 29.85 841 24.83 1.7 35 53 -6.9 19.5
21:35 1011 29.85 841 24.83 1.6 35 54 -6.7 19.9
21:40 1011 29.85 841 24.83 1.6 34.8 55 -6.6 20.1
21:45 1011 29.85 841 24.83 1.6 34.8 55 -6.6 20.1
21:50 1011 29.85 841 24.83 1.6 34.9 54 -6.6 20
21:55 1012 29.88 841 24.83 1.6 35 53 -6.8 19.7
22:00 1012 29.88 841 24.83 1.7 35 53 -6.8 19.7
22:05 1012 29.88 841 24.83 1.7 35 54 -6.7 19.9
22:10 1012 29.88 841 24.83 1.7 35 53 -6.9 19.5
22:15 1012 29.88 841 24.83 1.6 34.9 54 -6.8 19.8
22:20 1012 29.88 841 24.83 1.5 34.7 56 -6.3 20.7
22:25 1012 29.88 841 24.83 1.3 34.4 58 -6.1 21
22:30 1012 29.88 841 24.83 1.3 34.3 58 -6 21.2
22:35 1012 29.88 841 24.83 1.2 34.2 61 -5.6 22
22:40 1012 29.88 841 24.83 1.1 34.1 62 -5.4 22.3
22:45 1012 29.88 841 24.83 1.1 33.9 62 -5.4 22.4
22:50 1012 29.88 841 24.83 0.9 33.7 63 -5.3 22.5
22:55 1012 29.88 841 24.83 0.9 33.6 63 -5.3 22.5
23:00 1012 29.88 841 24.83 0.9 33.6 64 -5.2 22.6
23:05 1012 29.88 841 24.83 0.9 33.5 63 -5.4 22.3
23:10 1012 29.88 841 24.83 0.9 33.6 63 -5.3 22.4
23:15 1012 29.88 841 24.83 0.9 33.6 63 -5.3 22.4
23:20 1012 29.88 841 24.83 0.9 33.6 65 -5 23
23:25 1012 29.88 841 24.83 0.9 33.6 65 -5 23
23:30 1012 29.88 841 24.83 0.9 33.6 64 -5.1 22.9
23:35 1012 29.88 841 24.83 1 33.8 64 -5.1 22.9
23:40 1012 29.88 841 24.83 1.1 34 63 -5.1 22.8
23:45 1012 29.88 842 24.86 1.1 34.1 63 -5.1 22.9
23:50 1012 29.88 842 24.86 1.1 33.9 64 -5 22.9
23:55 1012 29.88 842 24.86 1 33.8 65 -4.9 23.1
24:00 1012 29.88 842 24.86 0.9 33.6 65 -5 23